Time;durP1;ratioP1;P1;durP2;ratioP2;P2;SDS_P1;SDS_P2;PMS_P1;PMS_P2;Temp;Humidity;BMP_temperature;BMP_pressure;BME280_temperature;BME280_humidity;BME280_pressure;Samples;Min_cycle;Max_cycle;Signal;HPM_P1;HPM_P2
2022/08/15 00:01:11;;;;;;;18.07;13.32;;;;;;;20.92;85.07;100080.46;1729907;81;25843;-79
2022/08/15 00:06:07;;;;;;;16.95;13.13;;;;;;;20.93;85.71;100078.56;1814036;77;25648;-79
2022/08/15 00:08:38;;;;;;;18.32;13.93;;;;;;;20.80;85.97;100075.80;1829220;77;26381;-80
2022/08/15 00:11:10;;;;;;;19.98;13.53;;;;;;;20.75;86.34;100071.68;1792837;78;27542;-81
2022/08/15 00:13:39;;;;;;;21.90;13.85;;;;;;;20.70;86.84;100073.01;1771839;78;25944;-79
2022/08/15 00:16:06;;;;;;;18.42;13.13;;;;;;;20.64;87.15;100068.09;1785326;78;25914;-80
2022/08/15 00:18:33;;;;;;;17.77;15.05;;;;;;;20.59;87.67;100072.70;1799992;78;25792;-80
2022/08/15 00:21:02;;;;;;;21.33;14.47;;;;;;;20.55;87.93;100062.88;1785889;78;25862;-80
2022/08/15 00:23:29;;;;;;;17.52;14.73;;;;;;;20.53;88.17;100060.96;1795603;78;27577;-79
2022/08/15 00:26:00;;;;;;;19.77;13.95;;;;;;;20.53;88.62;100054.16;1790603;79;25912;-80
2022/08/15 00:28:29;;;;;;;21.45;14.53;;;;;;;20.50;88.93;100057.96;1786888;78;25687;-80
2022/08/15 00:30:56;;;;;;;19.73;14.60;;;;;;;20.49;89.35;100057.67;1789358;78;26785;-80
2022/08/15 00:33:24;;;;;;;16.60;14.43;;;;;;;20.46;89.51;100056.33;1803652;78;25739;-79
2022/08/15 00:35:53;;;;;;;25.12;14.55;;;;;;;20.45;89.81;100055.20;1787259;78;28230;-79
2022/08/15 00:38:25;;;;;;;18.65;14.35;;;;;;;20.45;89.97;100046.51;1784821;78;25877;-80
2022/08/15 00:43:49;;;;;;;20.55;16.27;;;;;;;20.44;90.35;100050.86;1796094;78;25779;-79
2022/08/15 00:46:17;;;;;;;23.42;15.18;;;;;;;20.44;90.55;100054.95;1810796;78;26357;-80
2022/08/15 00:48:46;;;;;;;20.08;14.70;;;;;;;20.44;90.66;100054.41;1782760;79;27439;-80
2022/08/15 00:51:30;;;;;;;21.23;16.27;;;;;;;20.42;90.80;100052.47;1808480;78;25738;-80
2022/08/15 00:54:08;;;;;;;18.77;15.25;;;;;;;20.43;90.73;100047.31;1805598;78;25855;-80
2022/08/15 00:56:48;;;;;;;25.92;16.10;;;;;;;20.42;90.95;100050.31;1804740;78;25733;-79
2022/08/15 00:59:20;;;;;;;20.87;15.77;;;;;;;20.42;91.18;100054.39;1805614;78;25668;-81
2022/08/15 01:01:46;;;;;;;18.48;14.80;;;;;;;20.42;91.41;100049.75;1838088;77;28238;-81
2022/08/15 01:04:15;;;;;;;20.48;15.90;;;;;;;20.42;91.52;100054.39;1832213;77;26072;-79
2022/08/15 01:06:45;;;;;;;22.98;16.32;;;;;;;20.42;91.55;100060.63;1819354;77;25769;-79
2022/08/15 01:09:14;;;;;;;23.97;15.13;;;;;;;20.43;91.58;100060.09;1840131;77;26477;-79
2022/08/15 01:11:52;;;;;;;19.62;15.58;;;;;;;20.43;91.64;100058.73;1823873;76;25851;-81
2022/08/15 01:14:22;;;;;;;17.80;14.58;;;;;;;20.44;91.73;100055.77;1787569;78;27494;-80
2022/08/15 01:16:50;;;;;;;20.37;15.65;;;;;;;20.44;91.49;100054.95;1763742;80;25874;-79
2022/08/15 01:19:26;;;;;;;25.32;15.75;;;;;;;20.45;91.55;100048.41;1833814;77;25833;-80
2022/08/15 01:22:10;;;;;;;19.45;15.98;;;;;;;20.46;91.54;100054.14;1809082;77;26391;-79
2022/08/15 01:25:03;;;;;;;21.07;15.78;;;;;;;20.44;91.56;100054.95;1807882;78;25737;-81
2022/08/15 01:27:41;;;;;;;19.10;16.27;;;;;;;20.40;91.61;100060.08;1805458;78;27440;-81
2022/08/15 01:30:11;;;;;;;20.52;15.25;;;;;;;20.34;91.94;100054.33;1798572;78;25790;-80
2022/08/15 01:32:38;;;;;;;21.33;15.98;;;;;;;20.30;92.21;100051.86;1783099;78;25321;-79
2022/08/15 01:35:05;;;;;;;26.68;16.10;;;;;;;20.26;92.59;100049.40;1804482;78;25803;-80
2022/08/15 01:37:32;;;;;;;21.17;16.70;;;;;;;20.22;92.83;100044.21;1797427;78;25766;-80
2022/08/15 01:40:15;;;;;;;21.80;16.07;;;;;;;20.21;92.99;100039.84;1809150;78;28744;-80
2022/08/15 01:42:48;;;;;;;21.82;16.32;;;;;;;20.19;93.24;100035.73;1797545;78;25842;-81
2022/08/15 01:45:21;;;;;;;21.60;16.48;;;;;;;20.16;93.30;100038.44;1806078;78;25812;-81
2022/08/15 01:48:00;;;;;;;22.70;17.50;;;;;;;20.15;93.73;100040.86;1800334;78;26505;-80
2022/08/15 01:50:37;;;;;;;26.05;17.30;;;;;;;20.14;93.98;100039.23;1783809;78;25802;-80
2022/08/15 01:53:23;;;;;;;25.40;17.65;;;;;;;20.16;94.05;100041.69;1819090;78;27457;-80
2022/08/15 01:56:07;;;;;;;23.35;17.52;;;;;;;20.17;94.09;100033.80;1800455;78;25774;-80
2022/08/15 01:58:41;;;;;;;23.45;17.25;;;;;;;20.17;94.29;100031.90;1807000;78;25851;-80
2022/08/15 02:01:17;;;;;;;22.20;16.17;;;;;;;20.17;94.38;100022.91;1805042;78;25843;-80
2022/08/15 02:03:49;;;;;;;18.73;16.10;;;;;;;20.15;94.29;100027.80;1787819;78;25349;-80
2022/08/15 02:06:25;;;;;;;21.52;16.30;;;;;;;20.12;94.32;100021.02;1807895;78;27512;-80
2022/08/15 02:08:52;;;;;;;28.52;16.50;;;;;;;20.08;94.22;100014.44;1790748;78;25312;-80
2022/08/15 02:11:24;;;;;;;22.95;16.35;;;;;;;20.04;94.29;100024.20;1802933;78;25242;-80
2022/08/15 02:13:56;;;;;;;20.43;17.02;;;;;;;20.01;94.43;100027.46;1804656;77;25758;-80
2022/08/15 02:16:29;;;;;;;20.08;17.02;;;;;;;20.00;94.70;100029.35;1802617;77;25806;-80
2022/08/15 02:18:59;;;;;;;22.93;17.55;;;;;;;20.01;94.93;100030.18;1808479;77;27498;-79
2022/08/15 02:21:28;;;;;;;25.12;18.07;;;;;;;20.00;95.15;100023.09;1811422;77;26099;-79
2022/08/15 02:23:57;;;;;;;23.25;17.12;;;;;;;20.02;95.29;100029.65;1797196;77;25939;-80
2022/08/15 02:26:24;;;;;;;24.07;17.12;;;;;;;20.02;95.20;100022.28;1774612;78;25869;-79
2022/08/15 02:28:51;;;;;;;20.30;17.00;;;;;;;20.02;95.30;100017.41;1804530;78;25913;-81
2022/08/15 02:31:22;;;;;;;21.60;16.45;;;;;;;20.00;95.15;100005.42;1797123;77;27423;-80
2022/08/15 02:33:56;;;;;;;23.27;17.40;;;;;;;19.96;95.46;100017.37;1809003;78;25912;-80
2022/08/15 02:36:25;;;;;;;20.32;16.67;;;;;;;19.93;95.59;100017.08;1761482;79;26395;-80
2022/08/15 02:38:52;;;;;;;22.90;17.65;;;;;;;19.91;95.91;100004.27;1773730;79;25805;-79
2022/08/15 02:41:29;;;;;;;21.57;17.20;;;;;;;19.88;96.12;100006.16;1816985;76;25678;-79
2022/08/15 02:43:56;;;;;;;20.77;17.77;;;;;;;19.88;96.25;99994.76;1792476;77;27525;-79
2022/08/15 02:46:23;;;;;;;22.02;17.12;;;;;;;19.87;96.52;99988.20;1812878;77;25914;-80
2022/08/15 02:48:51;;;;;;;21.20;18.07;;;;;;;19.87;96.41;99997.72;1807995;77;25790;-79
2022/08/15 02:51:20;;;;;;;25.10;18.07;;;;;;;19.87;96.36;99988.20;1808942;77;25738;-79
2022/08/15 02:53:51;;;;;;;24.95;18.75;;;;;;;19.88;96.37;99993.40;1778106;79;25539;-80
2022/08/15 02:56:23;;;;;;;21.75;16.57;;;;;;;19.87;96.46;99990.39;1797148;77;27455;-80
2022/08/15 02:58:49;;;;;;;21.75;17.02;;;;;;;19.85;96.52;99991.19;1795300;77;25741;-80
2022/08/15 03:01:18;;;;;;;20.88;17.70;;;;;;;19.83;96.59;99992.00;1812135;77;26425;-80
2022/08/15 03:03:51;;;;;;;25.10;19.07;;;;;;;19.82;96.93;99993.63;1799782;77;25833;-79
2022/08/15 03:06:24;;;;;;;23.75;18.52;;;;;;;19.82;96.89;99998.50;1809429;76;25878;-79
2022/08/15 03:08:53;;;;;;;24.25;18.98;;;;;;;19.85;97.05;99997.98;1793986;79;27449;-79
2022/08/15 03:11:20;;;;;;;24.00;18.30;;;;;;;19.86;97.05;99994.73;1805367;78;25818;-79
2022/08/15 03:13:47;;;;;;;23.70;18.55;;;;;;;19.84;97.03;99999.08;1805693;78;25813;-80
2022/08/15 03:16:15;;;;;;;23.83;19.12;;;;;;;19.85;97.17;100000.70;1808602;78;25522;-79
2022/08/15 03:18:42;;;;;;;22.80;17.62;;;;;;;19.85;97.15;99998.52;1787477;79;25250;-80
2022/08/15 03:21:19;;;;;;;24.00;19.00;;;;;;;19.85;97.17;100002.06;1799666;79;27519;-80
2022/08/15 03:23:49;;;;;;;23.75;18.87;;;;;;;19.87;96.99;100006.70;1793753;78;25814;-80
2022/08/15 03:26:18;;;;;;;20.10;17.02;;;;;;;19.89;97.08;99995.02;1761306;80;25872;-80
2022/08/15 03:28:44;;;;;;;20.72;17.45;;;;;;;19.92;96.91;99995.87;1799825;79;25805;-80
2022/08/15 03:31:12;;;;;;;22.93;17.65;;;;;;;19.97;96.70;99997.80;1810517;79;25732;-80
2022/08/15 03:33:43;;;;;;;24.67;17.92;;;;;;;19.99;96.52;99995.64;1805582;79;27430;-79
2022/08/15 03:36:11;;;;;;;21.05;18.12;;;;;;;20.00;96.17;99991.83;1818934;77;25826;-82
2022/08/15 03:38:39;;;;;;;25.32;17.80;;;;;;;20.02;96.22;99998.38;1820054;77;25800;-80
2022/08/15 03:41:09;;;;;;;22.87;18.85;;;;;;;20.01;96.13;99992.12;1815259;77;25722;-81
2022/08/15 03:43:37;;;;;;;;;;;;;;;19.99;96.13;99987.48;1787872;78;25924;-81
2022/08/15 03:46:09;;;;;;;24.70;16.82;;;;;;;19.97;96.51;99989.65;1806441;77;28586;-81
2022/08/15 03:48:44;;;;;;;23.12;18.35;;;;;;;19.91;96.61;99984.70;1791025;78;25769;-80
2022/08/15 03:51:12;;;;;;;28.27;19.25;;;;;;;19.93;96.75;99993.41;1833000;77;26522;-80
2022/08/15 03:53:44;;;;;;;21.02;17.30;;;;;;;19.93;96.83;99989.90;1825282;77;25781;-80
2022/08/15 03:56:15;;;;;;;23.95;18.87;;;;;;;19.90;96.77;99989.88;1813518;77;25943;-80
2022/08/15 03:58:43;;;;;;;27.13;19.62;;;;;;;19.91;96.85;99982.52;1824366;77;27586;-80
2022/08/15 04:01:19;;;;;;;26.37;19.10;;;;;;;19.94;96.89;100004.58;1813553;77;25719;-80
2022/08/15 04:03:47;;;;;;;25.97;19.80;;;;;;;19.92;96.72;100009.46;1804876;77;25726;-79
2022/08/15 04:06:19;;;;;;;25.70;19.15;;;;;;;19.90;97.04;99997.20;1815670;77;25862;-80
2022/08/15 04:08:50;;;;;;;23.38;19.37;;;;;;;19.92;97.20;99990.44;1809871;77;25266;-79
2022/08/15 04:11:21;;;;;;;23.57;19.35;;;;;;;19.94;97.28;99998.31;1810543;77;27436;-80
2022/08/15 04:13:48;;;;;;;21.30;17.95;;;;;;;19.93;97.29;100000.77;1821035;77;25877;-81
2022/08/15 04:16:17;;;;;;;23.80;18.55;;;;;;;19.94;97.29;100003.22;1789618;77;25668;-80
2022/08/15 04:18:44;;;;;;;25.68;18.82;;;;;;;19.97;97.31;100004.03;1814161;77;26251;-81
2022/08/15 04:21:13;;;;;;;28.10;19.05;;;;;;;20.00;97.35;100003.52;1814485;77;25293;-80
2022/08/15 04:23:44;;;;;;;22.62;18.05;;;;;;;20.00;97.32;99994.01;1815835;77;27436;-81
2022/08/15 04:26:12;;;;;;;23.10;19.00;;;;;;;20.03;97.35;99995.39;1809330;77;25782;-81
2022/08/15 04:28:39;;;;;;;21.70;18.73;;;;;;;20.05;97.35;99993.23;1805452;77;25281;-79
2022/08/15 04:31:11;;;;;;;22.90;17.60;;;;;;;20.07;97.43;99992.42;1813525;77;25894;-80
2022/08/15 04:33:38;;;;;;;22.58;18.92;;;;;;;20.10;97.51;99996.52;1800395;77;25750;-80
2022/08/15 04:36:11;;;;;;;22.67;17.77;;;;;;;20.12;97.59;99996.53;1806960;77;27432;-81
2022/08/15 04:38:42;;;;;;;22.98;18.50;;;;;;;20.17;97.71;99997.08;1808164;77;25750;-81
2022/08/15 04:41:11;;;;;;;22.62;18.45;;;;;;;20.16;97.69;99983.22;1821931;77;25770;-81
2022/08/15 04:43:42;;;;;;;22.00;18.37;;;;;;;20.18;97.80;99985.13;1784876;79;25921;-82
2022/08/15 04:46:10;;;;;;;23.57;18.27;;;;;;;20.20;97.92;99990.62;1818404;77;26017;-80
2022/08/15 04:48:37;;;;;;;20.90;17.65;;;;;;;20.18;97.97;99984.59;1810793;78;27486;-79
2022/08/15 04:51:06;;;;;;;23.50;18.23;;;;;;;20.21;98.19;99989.52;1795310;78;25729;-81
2022/08/15 04:53:35;;;;;;;20.77;18.12;;;;;;;20.25;98.35;99987.11;1804031;78;25786;-80
2022/08/15 04:56:06;;;;;;;21.68;18.85;;;;;;;20.30;98.50;99992.56;1797567;79;25817;-81
2022/08/15 04:58:35;;;;;;;20.52;18.32;;;;;;;20.35;98.76;99993.95;1791213;78;25596;-82
2022/08/15 05:01:07;;;;;;;22.52;17.98;;;;;;;20.38;98.98;99986.64;1800805;78;27483;-80
2022/08/15 05:03:37;;;;;;;23.65;18.87;;;;;;;20.45;99.33;99986.66;1787031;78;25748;-79
2022/08/15 05:06:08;;;;;;;22.52;18.50;;;;;;;20.49;99.42;99979.59;1770889;79;25879;-80
2022/08/15 05:08:37;;;;;;;;;;;;;;;20.54;99.72;99982.34;1788357;80;25537;-80
2022/08/15 05:11:14;;;;;;;22.45;19.17;;;;;;;20.60;100.00;99988.08;1789109;79;26397;-80
2022/08/15 05:13:42;;;;;;;23.27;19.67;;;;;;;20.61;100.00;99984.28;1789874;80;27707;-79
2022/08/15 05:16:11;;;;;;;23.42;18.92;;;;;;;20.65;100.00;99975.86;1805784;79;25708;-79
2022/08/15 05:18:42;;;;;;;22.60;19.87;;;;;;;20.69;100.00;99979.67;1822141;77;25238;-80
2022/08/15 05:21:11;;;;;;;21.27;19.00;;;;;;;20.73;100.00;99983.49;1808637;78;26346;-80
2022/08/15 05:23:40;;;;;;;24.35;19.42;;;;;;;20.80;100.00;99979.70;1807340;77;25746;-80
2022/08/15 05:26:09;;;;;;;27.35;19.87;;;;;;;20.86;100.00;99979.44;1769292;80;27465;-80
2022/08/15 05:28:38;;;;;;;23.23;19.53;;;;;;;20.90;100.00;99972.91;1788025;80;25876;-80
2022/08/15 05:31:09;;;;;;;26.90;21.05;;;;;;;20.96;100.00;99971.83;1790884;78;25850;-81
2022/08/15 05:33:38;;;;;;;22.50;19.15;;;;;;;21.01;100.00;99979.47;1787775;79;25632;-81
2022/08/15 05:36:07;;;;;;;24.02;19.57;;;;;;;21.08;100.00;99978.70;1769606;80;25780;-80
2022/08/15 05:38:50;;;;;;;21.77;19.37;;;;;;;21.14;100.00;99984.44;1786282;79;27276;-80
2022/08/15 05:42:01;;;;;;;21.73;18.48;;;;;;;21.20;100.00;99981.16;1791787;78;25787;-79
2022/08/15 05:44:36;;;;;;;24.52;19.15;;;;;;;21.25;100.00;99983.90;1762094;80;25841;-81
2022/08/15 05:47:33;;;;;;;21.50;19.17;;;;;;;21.30;100.00;99988.80;1787599;79;26433;-81
2022/08/15 05:50:09;;;;;;;22.62;20.05;;;;;;;21.33;100.00;99981.45;1788089;78;26172;-80
2022/08/15 05:53:03;;;;;;;20.62;18.37;;;;;;;21.37;100.00;99981.71;1791050;78;27456;-79
2022/08/15 05:55:49;;;;;;;26.10;19.07;;;;;;;21.41;100.00;99978.71;1787168;79;25258;-80
2022/08/15 05:58:37;;;;;;;22.45;17.92;;;;;;;;;;1786341;79;25881;-81
2022/08/15 06:01:28;;;;;;;22.02;19.05;;;;;;;21.59;100.00;99984.99;1787296;79;26910;-80
2022/08/15 06:04:00;;;;;;;24.60;18.65;;;;;;;21.69;100.00;99987.70;1751360;80;25958;-80
2022/08/15 06:06:31;;;;;;;24.47;18.50;;;;;;;21.79;100.00;99989.61;1785870;80;27481;-80
2022/08/15 06:09:22;;;;;;;25.57;19.12;;;;;;;21.85;100.00;99991.27;1804411;78;25820;-81
2022/08/15 06:11:53;;;;;;;21.82;18.35;;;;;;;21.88;100.00;99987.44;1803476;78;25724;-80
2022/08/15 06:14:39;;;;;;;24.57;18.12;;;;;;;21.91;100.00;99999.17;1786631;79;25768;-79
2022/08/15 06:17:22;;;;;;;23.42;17.50;;;;;;;21.94;100.00;100001.33;1790277;78;25826;-80
2022/08/15 06:19:51;;;;;;;24.05;18.85;;;;;;;22.01;100.00;100003.23;1805939;78;27465;-79
2022/08/15 06:22:38;;;;;;;21.37;17.75;;;;;;;22.06;100.00;100008.69;1793729;79;25793;-81
2022/08/15 06:25:38;;;;;;;22.05;17.95;;;;;;;22.11;100.00;100006.50;1791737;79;25595;-80
2022/08/15 06:28:36;;;;;;;21.33;18.37;;;;;;;22.18;100.00;100013.83;1764094;78;26321;-80
2022/08/15 06:31:31;;;;;;;20.90;17.87;;;;;;;22.24;100.00;100011.34;1794117;78;25719;-81
2022/08/15 06:34:25;;;;;;;19.95;17.07;;;;;;;22.31;100.00;100013.25;1791112;78;27500;-80
2022/08/15 06:37:19;;;;;;;22.80;17.92;;;;;;;22.38;100.00;100010.22;1790692;78;25954;-81
2022/08/15 06:40:18;;;;;;;20.00;18.00;;;;;;;22.47;100.00;100012.12;1785407;78;25732;-80
2022/08/15 06:42:45;;;;;;;21.10;17.48;;;;;;;22.62;100.00;99999.80;1781176;79;25763;-79
2022/08/15 06:45:27;;;;;;;25.82;18.75;;;;;;;22.73;100.00;100008.19;1770860;79;26187;-78
2022/08/15 06:48:03;;;;;;;20.50;17.77;;;;;;;22.84;100.00;100013.87;1803295;78;27515;-79
2022/08/15 06:50:38;;;;;;;19.98;18.00;;;;;;;22.92;99.38;100013.27;1788103;79;25794;-79
2022/08/15 06:53:13;;;;;;;20.45;17.95;;;;;;;22.98;99.04;100016.81;1778614;79;25924;-79
2022/08/15 06:55:53;;;;;;;21.77;18.65;;;;;;;23.04;98.87;100015.68;1795572;79;25775;-78
2022/08/15 06:58:49;;;;;;;19.45;16.60;;;;;;;23.10;98.36;100020.01;1766447;79;25905;-78
2022/08/15 07:01:30;;;;;;;20.35;17.37;;;;;;;23.16;97.94;100020.81;1803862;78;28273;-79
2022/08/15 07:04:32;;;;;;;21.23;18.85;;;;;;;23.16;97.43;100018.08;1806769;78;26560;-79
2022/08/15 07:07:13;;;;;;;22.07;17.95;;;;;;;23.18;97.20;100016.67;1790252;78;25900;-79
2022/08/15 07:09:51;;;;;;;27.07;18.62;;;;;;;23.25;97.21;100020.45;1761459;80;25591;-79
2022/08/15 07:12:32;;;;;;;20.68;16.45;;;;;;;23.30;96.81;100019.06;1748922;78;25904;-79
2022/08/15 07:15:13;;;;;;;19.52;16.65;;;;;;;23.32;95.79;100022.33;1799905;78;28296;-79
2022/08/15 07:17:49;;;;;;;;;;;;;;;23.32;95.27;100019.59;1804324;78;25751;-79
2022/08/15 07:20:18;;;;;;;18.23;14.95;;;;;;;23.35;95.09;100016.34;1795537;78;25834;-80
2022/08/15 07:22:45;;;;;;;20.80;16.37;;;;;;;23.38;95.02;100014.38;1812753;78;25756;-79
2022/08/15 07:25:18;;;;;;;22.45;16.05;;;;;;;23.43;94.86;100019.28;1786589;79;25769;-80
2022/08/15 07:28:05;;;;;;;17.90;16.00;;;;;;;23.49;94.69;100022.23;1754759;79;28261;-80
2022/08/15 07:30:52;;;;;;;17.25;15.45;;;;;;;23.58;94.71;100028.73;1767673;80;25914;-80
2022/08/15 07:33:41;;;;;;;19.12;16.12;;;;;;;23.63;93.35;100032.77;1743350;79;25863;-79
2022/08/15 07:36:26;;;;;;;18.25;16.32;;;;;;;23.68;93.33;100020.44;1768834;79;25804;-80
2022/08/15 07:38:54;;;;;;;18.10;15.58;;;;;;;23.78;92.65;100029.91;1790069;78;26356;-79
2022/08/15 07:41:32;;;;;;;17.02;15.32;;;;;;;23.84;92.66;100025.23;1798772;78;28224;-79
2022/08/15 07:44:22;;;;;;;19.48;15.23;;;;;;;23.91;92.53;100022.95;1789521;78;25897;-80
2022/08/15 07:46:59;;;;;;;;;;;;;;;23.96;92.00;100021.55;1786025;78;25664;-80
2022/08/15 07:49:35;;;;;;;15.90;14.20;;;;;;;23.98;90.70;100021.25;1801485;78;25822;-80
2022/08/15 07:52:20;;;;;;;15.15;13.75;;;;;;;23.97;90.56;100019.09;1800852;77;25994;-80
2022/08/15 07:54:54;;;;;;;15.83;14.23;;;;;;;23.99;90.36;100021.53;1795502;78;27448;-80
2022/08/15 07:57:33;;;;;;;15.25;13.75;;;;;;;24.01;90.14;100013.30;1796233;78;25699;-79
2022/08/15 08:00:21;;;;;;;18.00;14.05;;;;;;;24.06;89.62;100017.95;1800743;78;25766;-80
2022/08/15 08:03:14;;;;;;;14.98;13.38;;;;;;;24.11;89.59;100015.95;1804405;78;26197;-79
2022/08/15 08:06:23;;;;;;;21.23;14.50;;;;;;;24.15;89.22;100010.16;1794205;79;25988;-79
2022/08/15 08:08:59;;;;;;;15.18;13.53;;;;;;;24.24;88.72;100021.30;1799691;78;28359;-78
2022/08/15 08:11:40;;;;;;;18.10;13.98;;;;;;;24.33;88.53;100019.02;1831266;77;25884;-79
2022/08/15 08:14:31;;;;;;;15.25;13.35;;;;;;;24.41;87.71;100029.31;1809538;77;25762;-79
2022/08/15 08:17:16;;;;;;;15.85;14.10;;;;;;;24.45;87.50;100035.84;1814961;77;25916;-79
2022/08/15 08:19:58;;;;;;;17.95;13.80;;;;;;;24.46;87.09;100029.81;1808024;77;25285;-80
2022/08/15 08:22:31;;;;;;;15.03;12.73;;;;;;;24.48;87.17;100027.59;1814800;77;27453;-80
2022/08/15 08:25:18;;;;;;;14.20;12.75;;;;;;;24.51;87.10;100031.92;1811183;77;25937;-79
2022/08/15 08:28:31;;;;;;;15.88;12.93;;;;;;;24.51;86.21;100037.95;1832041;76;25740;-79
2022/08/15 08:31:06;;;;;;;15.45;12.50;;;;;;;24.51;86.11;100036.03;1820714;77;26621;-79
2022/08/15 08:34:05;;;;;;;14.47;12.98;;;;;;;24.48;85.97;100037.19;1826732;77;25896;-79
2022/08/15 08:36:55;;;;;;;16.45;12.78;;;;;;;24.47;85.44;100039.09;1824377;77;27496;-79
2022/08/15 08:39:54;;;;;;;16.65;13.48;;;;;;;24.45;85.41;100041.86;1813697;77;25770;-80
2022/08/15 08:42:34;;;;;;;14.33;12.93;;;;;;;24.46;85.84;100042.92;1825444;77;25840;-79
2022/08/15 08:45:24;;;;;;;16.35;12.90;;;;;;;24.45;85.46;100039.95;1825719;77;26428;-79
2022/08/15 08:48:31;;;;;;;18.07;14.23;;;;;;;24.47;85.80;100046.48;1793817;77;25812;-79
2022/08/15 08:51:08;;;;;;;15.23;13.20;;;;;;;24.50;85.57;100045.92;1792268;78;27470;-80
2022/08/15 08:53:46;;;;;;;14.47;12.98;;;;;;;24.50;85.46;100045.38;1798729;78;25976;-79
2022/08/15 08:56:22;;;;;;;16.93;13.72;;;;;;;24.52;85.51;100042.34;1798552;78;25748;-79
2022/08/15 08:59:03;;;;;;;16.30;14.55;;;;;;;24.53;85.66;100046.69;1799344;77;26405;-79
2022/08/15 09:01:35;;;;;;;17.23;15.03;;;;;;;24.53;85.65;100040.66;1794931;78;25819;-78
2022/08/15 09:04:05;;;;;;;15.88;14.40;;;;;;;24.53;85.54;100047.27;1817743;77;28217;-80
2022/08/15 09:06:37;;;;;;;22.60;15.38;;;;;;;24.50;85.40;100045.38;1833976;77;25880;-78
2022/08/15 09:09:15;;;;;;;16.32;14.65;;;;;;;24.52;85.58;100043.70;1816907;77;25766;-79
2022/08/15 09:11:54;;;;;;;16.80;15.05;;;;;;;24.53;85.61;100040.66;1828571;77;25818;-79
2022/08/15 09:14:34;;;;;;;19.15;15.00;;;;;;;24.53;85.48;100045.31;1813879;77;25277;-78
2022/08/15 09:17:06;;;;;;;19.17;15.13;;;;;;;24.53;85.44;100043.41;1785314;78;27419;-78
2022/08/15 09:19:38;;;;;;;20.75;15.08;;;;;;;24.56;85.43;100039.27;1812904;77;25935;-78
2022/08/15 09:22:05;;;;;;;17.05;15.38;;;;;;;24.60;85.76;100048.53;1818162;77;25714;-80
2022/08/15 09:24:31;;;;;;;16.65;14.25;;;;;;;24.64;85.71;100042.73;1818077;77;26175;-79
2022/08/15 09:27:06;;;;;;;17.30;14.98;;;;;;;24.68;86.08;100045.72;1831657;77;25767;-79
2022/08/15 09:29:41;;;;;;;17.15;15.30;;;;;;;24.70;85.80;100044.29;1826674;76;27506;-79
2022/08/15 09:32:30;;;;;;;19.20;15.98;;;;;;;24.72;85.50;100046.18;1826831;77;26063;-79
2022/08/15 09:35:30;;;;;;;21.25;15.15;;;;;;;24.76;85.32;100047.28;1822095;77;25745;-78
2022/08/15 09:38:37;;;;;;;17.02;14.98;;;;;;;24.81;85.75;100039.53;1822208;77;25709;-78
2022/08/15 09:41:15;;;;;;;16.60;14.87;;;;;;;24.86;86.26;100032.08;1824387;77;25935;-80
2022/08/15 09:43:55;;;;;;;15.88;14.33;;;;;;;24.92;86.67;100029.52;1817704;77;28462;-80
2022/08/15 09:46:54;;;;;;;17.95;15.38;;;;;;;24.95;86.30;100028.95;1823767;77;25698;-79
2022/08/15 09:50:18;;;;;;;17.52;15.38;;;;;;;24.93;86.12;100023.50;1799927;79;25779;-79
2022/08/15 09:53:17;;;;;;;19.07;15.25;;;;;;;24.98;86.66;100023.41;1810690;77;26339;-79
2022/08/15 09:55:47;;;;;;;17.70;15.85;;;;;;;25.02;86.70;100026.64;1802477;78;26203;-80
2022/08/15 09:58:23;;;;;;;18.57;15.78;;;;;;;25.05;86.25;100021.13;1791110;78;26044;-80
2022/08/15 10:01:05;;;;;;;17.23;15.13;;;;;;;25.10;86.14;100023.25;1802083;78;25746;-79
2022/08/15 10:03:49;;;;;;;19.77;16.67;;;;;;;25.15;85.98;100021.79;1808480;78;25826;-79
2022/08/15 10:06:51;;;;;;;18.85;16.15;;;;;;;25.25;86.68;100025.78;1797794;78;25893;-77
2022/08/15 10:09:31;;;;;;;17.95;15.25;;;;;;;25.40;86.43;100023.91;1809588;78;25990;-78
2022/08/15 10:12:09;;;;;;;17.10;15.27;;;;;;;25.52;86.29;100017.42;1785168;78;27464;-79
2022/08/15 10:15:02;;;;;;;16.42;14.78;;;;;;;25.57;85.83;100014.61;1804575;78;25827;-79
2022/08/15 10:17:39;;;;;;;17.48;15.23;;;;;;;25.70;86.22;100009.73;1801359;77;25737;-79
2022/08/15 10:20:21;;;;;;;20.62;15.58;;;;;;;25.87;86.22;100001.75;1797618;78;25989;-79
2022/08/15 10:23:04;;;;;;;19.80;14.83;;;;;;;25.96;85.21;99999.94;1791124;79;25767;-78
2022/08/15 10:25:44;;;;;;;15.80;14.00;;;;;;;25.99;84.44;99989.16;1786417;79;28248;-78
2022/08/15 10:28:21;;;;;;;16.42;13.98;;;;;;;26.08;84.94;99991.20;1795567;78;25726;-79
2022/08/15 10:31:05;;;;;;;16.97;14.47;;;;;;;26.17;84.13;99999.02;1794023;78;25751;-77
2022/08/15 10:33:38;;;;;;;15.98;13.95;;;;;;;26.24;83.58;99993.95;1816427;77;25725;-78
2022/08/15 10:36:16;;;;;;;15.88;14.20;;;;;;;26.31;82.97;99983.36;1783682;78;25979;-78
2022/08/15 10:38:48;;;;;;;16.20;14.07;;;;;;;26.36;82.66;99986.83;1804934;77;28179;-78
2022/08/15 10:41:36;;;;;;;19.37;14.60;;;;;;;26.36;81.73;99980.52;1799992;77;25945;-79
2022/08/15 10:44:20;;;;;;;17.82;14.73;;;;;;;26.31;81.15;99982.80;1802636;77;25245;-78
2022/08/15 10:46:51;;;;;;;16.00;14.30;;;;;;;26.38;81.79;99987.34;1819684;77;26425;-78
2022/08/15 10:49:46;;;;;;;18.17;13.88;;;;;;;26.47;81.47;99986.89;1814885;77;25917;-77
2022/08/15 10:52:27;;;;;;;15.25;13.65;;;;;;;26.65;81.20;99994.18;1814464;77;27443;-78
2022/08/15 10:55:23;;;;;;;14.03;12.47;;;;;;;26.80;79.65;99994.44;1816237;78;25891;-79
2022/08/15 10:57:58;;;;;;;14.58;13.08;;;;;;;26.82;79.00;99990.82;1791125;79;25793;-78
2022/08/15 11:01:06;;;;;;;15.35;13.15;;;;;;;26.87;79.28;99983.03;1803930;78;26263;-80
2022/08/15 11:03:49;;;;;;;16.42;14.20;;;;;;;26.94;78.75;99991.13;1794630;78;25949;-79
2022/08/15 11:06:19;;;;;;;15.98;13.13;;;;;;;;;;1790245;78;27453;-79
2022/08/15 11:08:53;;;;;;;14.43;12.58;;;;;;;27.16;78.46;99993.09;1800366;77;26564;-79
2022/08/15 11:11:25;;;;;;;14.85;13.32;;;;;;;27.27;78.75;99988.96;1791797;78;26435;-78
2022/08/15 11:13:59;;;;;;;13.93;12.37;;;;;;;27.39;78.94;99989.27;1791137;78;25812;-79
2022/08/15 11:16:40;;;;;;;14.38;12.90;;;;;;;27.48;77.62;99985.44;1784053;78;25834;-78
2022/08/15 11:19:19;;;;;;;;;;;;;;;27.46;76.51;99986.31;1781223;78;28276;-79
2022/08/15 11:21:55;;;;;;;15.38;12.25;;;;;;;27.45;76.20;99988.02;1771827;78;25818;-78
2022/08/15 11:24:39;;;;;;;14.05;12.55;;;;;;;27.40;75.97;99991.70;1785604;78;25870;-80
2022/08/15 11:27:23;;;;;;;17.27;13.18;;;;;;;27.46;76.04;99985.50;1787246;78;25827;-78
2022/08/15 11:29:52;;;;;;;16.05;12.88;;;;;;;27.50;75.41;99980.44;1787475;78;25886;-79
2022/08/15 11:32:36;;;;;;;15.08;12.55;;;;;;;27.59;75.06;99988.75;1792614;77;27491;-77
2022/08/15 11:35:08;;;;;;;13.60;12.07;;;;;;;27.57;75.24;99988.25;1787907;79;25722;-78
2022/08/15 11:37:43;;;;;;;16.20;12.75;;;;;;;27.48;74.54;99985.44;1793103;78;25803;-79
2022/08/15 11:40:30;;;;;;;21.12;12.43;;;;;;;27.49;74.37;99984.89;1795846;79;25777;-78
2022/08/15 11:43:00;;;;;;;15.00;12.28;;;;;;;27.60;75.31;99986.26;1788400;79;25810;-78
2022/08/15 11:45:35;;;;;;;15.50;13.53;;;;;;;27.79;74.84;99984.67;1819807;78;27426;-77
2022/08/15 11:48:05;;;;;;;15.15;13.20;;;;;;;27.86;74.57;99987.80;1808861;77;26366;-79
2022/08/15 11:50:39;;;;;;;13.88;12.65;;;;;;;27.91;73.92;99979.38;1816753;78;34918;-79
2022/08/15 11:53:10;;;;;;;16.27;12.63;;;;;;;27.85;73.24;99985.59;1808826;77;25825;-77
2022/08/15 11:55:46;;;;;;;14.75;12.60;;;;;;;27.81;72.41;99984.61;1803591;77;25977;-79
2022/08/15 11:58:19;;;;;;;14.03;12.43;;;;;;;27.75;72.92;99984.50;1771174;79;27645;-79
2022/08/15 12:00:59;;;;;;;12.78;11.57;;;;;;;27.75;73.02;99980.92;1800048;78;25780;-79
2022/08/15 12:03:35;;;;;;;16.42;13.05;;;;;;;27.75;73.26;99975.42;1803565;78;26401;-79